Time;durP1;ratioP1;P1;durP2;ratioP2;P2;SDS_P1;SDS_P2;PMS_P1;PMS_P2;Temp;Humidity;BMP_temperature;BMP_pressure;BME280_temperature;BME280_humidity;BME280_pressure;Samples;Min_cycle;Max_cycle;Signal;HPM_P1;HPM_P2
2021/12/15 00:02:26;;;;;;;5.45;1.70;;;11.40;99.90;;;;;;5073033;28;20488;-71
2021/12/15 00:04:55;;;;;;;5.82;1.80;;;11.40;99.90;;;;;;5054970;28;20021;-72
2021/12/15 00:07:25;;;;;;;3.50;1.63;;;11.40;99.90;;;;;;5055016;28;20123;-72
2021/12/15 00:09:52;;;;;;;3.40;1.92;;;11.50;99.90;;;;;;5054682;28;20111;-72
2021/12/15 00:12:19;;;;;;;4.60;1.45;;;11.50;99.90;;;;;;5073130;28;20190;-72
2021/12/15 00:14:45;;;;;;;;;;;11.50;99.90;;;;;;5073251;28;20103;-72
2021/12/15 00:17:12;;;;;;;5.53;1.85;;;11.50;99.90;;;;;;5072763;28;20276;-72
2021/12/15 00:19:38;;;;;;;5.32;1.85;;;11.70;99.90;;;;;;5073121;28;20028;-71
2021/12/15 00:22:06;;;;;;;5.13;1.63;;;11.70;99.90;;;;;;5072559;28;20103;-72
2021/12/15 00:24:33;;;;;;;4.15;1.42;;;11.70;99.90;;;;;;5072456;28;20370;-71
2021/12/15 00:27:00;;;;;;;3.50;1.38;;;11.60;99.90;;;;;;5072874;28;20033;-70
2021/12/15 00:29:27;;;;;;;6.18;1.63;;;11.50;99.90;;;;;;5063747;28;20501;-69
2021/12/15 00:31:53;;;;;;;5.07;1.70;;;11.60;99.90;;;;;;5062997;28;20024;-69
2021/12/15 00:34:20;;;;;;;6.90;1.58;;;11.60;99.90;;;;;;5060680;28;20029;-71
2021/12/15 00:36:47;;;;;;;5.43;1.65;;;11.60;99.90;;;;;;5060611;28;20028;-71
2021/12/15 00:39:22;;;;;;;8.07;2.20;;;11.60;99.90;;;;;;5062342;28;20032;-71
2021/12/15 00:41:50;;;;;;;6.47;1.88;;;11.60;99.90;;;;;;5041594;28;20068;-70
2021/12/15 00:44:18;;;;;;;4.03;1.52;;;11.50;99.90;;;;;;5060123;28;20079;-69
2021/12/15 00:46:50;;;;;;;4.82;1.88;;;11.50;99.90;;;;;;5041673;28;20177;-70
2021/12/15 00:49:20;;;;;;;4.72;1.70;;;11.50;99.90;;;;;;5044314;28;20411;-72
2021/12/15 00:51:48;;;;;;;3.95;1.45;;;11.40;99.90;;;;;;5044714;28;20036;-71
2021/12/15 00:54:16;;;;;;;4.43;1.70;;;11.40;99.90;;;;;;5042571;28;20515;-69
2021/12/15 00:56:44;;;;;;;3.72;1.70;;;11.50;99.90;;;;;;5045081;28;20381;-68
2021/12/15 00:59:11;;;;;;;3.92;1.70;;;11.40;99.90;;;;;;5038694;28;20025;-72
2021/12/15 01:01:39;;;;;;;5.47;2.03;;;11.50;99.90;;;;;;5050988;28;20040;-73
2021/12/15 01:04:09;;;;;;;4.32;1.70;;;11.40;99.90;;;;;;5052437;28;20029;-70
2021/12/15 01:06:37;;;;;;;5.47;1.65;;;11.40;99.90;;;;;;5067185;28;20016;-67
2021/12/15 01:09:12;;;;;;;7.57;2.20;;;11.30;99.90;;;;;;5038219;28;20037;-67
2021/12/15 01:19:55;;;;;;;3.92;1.90;;;11.30;99.90;;;;;;5074202;28;20039;-73
2021/12/15 01:22:35;;;;;;;5.88;2.80;;;11.30;99.90;;;;;;5074213;28;20067;-72
2021/12/15 01:25:09;;;;;;;6.65;2.72;;;11.40;99.90;;;;;;5075061;28;20082;-71
2021/12/15 01:27:36;;;;;;;3.97;1.92;;;11.40;99.90;;;;;;5057491;28;20112;-71
2021/12/15 01:30:06;;;;;;;5.15;1.98;;;11.40;99.90;;;;;;5075514;28;20064;-71
2021/12/15 01:32:32;;;;;;;5.00;1.83;;;11.30;99.90;;;;;;5075806;28;20020;-71
2021/12/15 01:34:58;;;;;;;4.78;2.15;;;11.30;99.90;;;;;;5075339;28;20027;-71
2021/12/15 01:37:24;;;;;;;4.30;2.20;;;11.40;99.90;;;;;;5057434;28;20397;-71
2021/12/15 01:39:54;;;;;;;3.73;2.00;;;11.40;99.90;;;;;;5075243;28;20040;-71
2021/12/15 01:42:30;;;;;;;5.00;1.98;;;11.40;99.90;;;;;;5075539;28;20025;-72
2021/12/15 01:47:41;;;;;;;6.15;2.15;;;11.40;99.90;;;;;;5075417;28;20039;-71
2021/12/15 01:50:10;;;;;;;3.97;1.55;;;11.40;99.90;;;;;;5075355;28;20016;-71
2021/12/15 01:52:39;;;;;;;5.75;1.90;;;11.40;99.90;;;;;;5074926;28;20025;-71
2021/12/15 01:55:17;;;;;;;5.13;1.70;;;11.40;99.90;;;;;;5075335;28;20028;-71
2021/12/15 01:57:45;;;;;;;4.45;1.70;;;11.40;99.90;;;;;;5075316;28;20050;-72
2021/12/15 02:00:21;;;;;;;5.72;1.60;;;11.50;99.90;;;;;;5075133;28;20081;-72
2021/12/15 02:02:49;;;;;;;3.25;1.33;;;11.50;99.90;;;;;;5056975;28;20101;-72
2021/12/15 02:05:16;;;;;;;4.05;1.40;;;11.60;99.90;;;;;;5074814;28;20067;-71
2021/12/15 02:07:45;;;;;;;4.55;1.27;;;11.60;99.90;;;;;;5056456;28;20385;-71
2021/12/15 02:10:14;;;;;;;4.70;1.60;;;11.60;99.90;;;;;;5074826;28;20028;-73
2021/12/15 02:12:41;;;;;;;5.35;1.52;;;11.60;99.90;;;;;;5074968;28;20029;-74
2021/12/15 02:15:15;;;;;;;3.15;1.55;;;11.70;99.90;;;;;;5074656;28;20024;-73
2021/12/15 02:17:42;;;;;;;4.43;1.60;;;11.80;99.90;;;;;;5074970;28;20115;-73
2021/12/15 02:20:12;;;;;;;4.20;1.67;;;11.80;99.90;;;;;;5074900;28;20488;-71
2021/12/15 02:22:38;;;;;;;4.85;1.75;;;11.80;99.90;;;;;;5074545;28;20033;-72
2021/12/15 02:25:10;;;;;;;3.90;1.50;;;11.90;99.90;;;;;;5074708;28;20017;-72
2021/12/15 02:27:38;;;;;;;4.28;1.58;;;11.90;99.90;;;;;;5074390;28;20074;-71
2021/12/15 02:30:22;;;;;;;8.85;2.22;;;11.80;99.90;;;;;;5074643;28;20115;-72
2021/12/15 02:33:00;;;;;;;3.53;1.73;;;11.80;99.90;;;;;;5056382;28;20032;-72
2021/12/15 02:38:12;;;;;;;6.93;1.85;;;11.80;99.90;;;;;;5074099;28;20051;-73
2021/12/15 02:40:39;;;;;;;2.90;1.42;;;11.90;99.90;;;;;;5074215;28;20388;-72
2021/12/15 02:43:05;;;;;;;6.72;2.00;;;11.90;99.90;;;;;;5074087;28;20028;-73
2021/12/15 02:45:32;;;;;;;3.00;1.40;;;11.90;99.90;;;;;;5074112;28;20016;-72
2021/12/15 02:47:59;;;;;;;3.65;1.63;;;11.90;99.90;;;;;;5074184;28;20028;-72
2021/12/15 02:50:29;;;;;;;4.32;1.50;;;11.90;99.90;;;;;;5073739;28;20066;-74
2021/12/15 02:52:58;;;;;;;3.15;1.27;;;11.90;99.90;;;;;;5056197;28;20029;-73
2021/12/15 02:55:26;;;;;;;3.13;1.33;;;12.00;99.90;;;;;;5039205;28;20022;-73
2021/12/15 02:57:52;;;;;;;3.60;1.55;;;12.00;99.90;;;;;;5055942;28;20041;-73
2021/12/15 03:00:25;;;;;;;3.90;1.40;;;12.00;99.90;;;;;;5073701;28;20091;-72
2021/12/15 03:03:52;;;;;;;3.28;1.40;;;12.10;99.90;;;;;;5074241;28;20029;-72
2021/12/15 03:17:01;;;;;;;4.45;1.70;;;12.10;99.90;;;;;;5074018;28;20070;-72
2021/12/15 03:19:27;;;;;;;6.70;1.92;;;12.20;99.90;;;;;;5073298;28;20031;-71
2021/12/15 03:21:54;;;;;;;4.82;1.60;;;12.20;99.90;;;;;;5074008;28;20315;-72
2021/12/15 03:24:26;;;;;;;4.80;1.63;;;12.10;99.90;;;;;;5073542;28;20025;-72
2021/12/15 03:27:02;;;;;;;4.35;1.52;;;12.00;99.90;;;;;;5073525;28;20028;-72
2021/12/15 03:37:42;;;;;;;6.78;2.20;;;11.80;99.90;;;;;;5073493;28;20044;-73
2021/12/15 03:40:11;;;;;;;3.03;1.50;;;11.70;99.90;;;;;;5072792;28;20032;-72
2021/12/15 03:42:47;;;;;;;4.07;1.70;;;11.70;99.90;;;;;;5072967;28;20035;-71
2021/12/15 03:45:17;;;;;;;5.70;1.92;;;11.70;99.90;;;;;;5073203;28;20110;-72
2021/12/15 03:47:46;;;;;;;5.30;1.70;;;11.80;99.90;;;;;;5072831;28;20028;-72
2021/12/15 03:50:15;;;;;;;3.30;1.55;;;11.80;99.90;;;;;;5072947;28;20465;-71
2021/12/15 03:52:42;;;;;;;5.25;1.90;;;11.80;99.90;;;;;;5073319;28;20020;-71
2021/12/15 03:55:10;;;;;;;6.30;2.00;;;11.70;99.90;;;;;;5072775;28;20103;-72
2021/12/15 03:57:36;;;;;;;3.15;1.63;;;11.80;99.90;;;;;;5072676;28;20028;-72
2021/12/15 04:00:08;;;;;;;7.13;1.80;;;11.90;99.90;;;;;;5072609;28;20063;-71
2021/12/15 04:02:34;;;;;;;5.93;2.13;;;11.80;99.90;;;;;;5073220;28;20028;-71
2021/12/15 04:05:11;;;;;;;4.93;1.80;;;11.80;99.90;;;;;;5056112;28;20048;-72
2021/12/15 04:07:37;;;;;;;3.92;1.50;;;11.70;99.90;;;;;;5072828;28;20063;-72
2021/12/15 04:10:10;;;;;;;3.65;1.65;;;11.80;99.90;;;;;;5054818;28;20028;-72
2021/12/15 04:12:40;;;;;;;4.93;2.10;;;11.70;99.90;;;;;;5072513;28;20465;-71
2021/12/15 04:17:58;;;;;;;5.30;1.92;;;11.70;99.90;;;;;;5072449;28;20146;-72
2021/12/15 04:20:27;;;;;;;7.25;1.90;;;11.60;99.90;;;;;;5054387;28;20090;-71
2021/12/15 04:22:53;;;;;;;5.50;1.95;;;11.60;99.90;;;;;;5072373;28;20032;-73
2021/12/15 04:25:27;;;;;;;3.88;1.52;;;11.60;99.90;;;;;;5072489;28;20024;-72
2021/12/15 04:28:06;;;;;;;4.90;1.95;;;11.60;99.90;;;;;;5072572;28;20070;-72
2021/12/15 04:30:49;;;;;;;4.55;1.77;;;11.60;99.90;;;;;;5072560;28;20024;-72
2021/12/15 04:33:24;;;;;;;3.58;1.70;;;11.70;99.90;;;;;;5072904;28;20059;-72
2021/12/15 04:35:53;;;;;;;4.60;1.52;;;11.70;99.90;;;;;;5054278;28;20041;-72
2021/12/15 04:38:22;;;;;;;4.30;1.67;;;11.80;99.90;;;;;;5054123;28;20135;-72
2021/12/15 04:40:48;;;;;;;4.82;1.58;;;11.90;99.90;;;;;;5072798;28;20469;-73
2021/12/15 04:43:14;;;;;;;5.25;1.40;;;11.90;99.90;;;;;;5054504;28;20029;-72
2021/12/15 04:45:42;;;;;;;4.72;1.60;;;11.80;99.90;;;;;;5076319;28;20477;-72
2021/12/15 04:48:10;;;;;;;3.53;1.48;;;11.80;99.90;;;;;;5076130;28;20025;-73
2021/12/15 04:50:38;;;;;;;2.88;1.10;;;11.80;99.90;;;;;;5076244;28;20024;-72
2021/12/15 04:53:07;;;;;;;3.55;1.10;;;11.90;99.90;;;;;;5058182;28;20071;-72
2021/12/15 04:55:36;;;;;;;2.60;1.30;;;12.00;99.90;;;;;;5076592;28;20021;-71
2021/12/15 04:58:05;;;;;;;4.30;1.30;;;12.00;99.90;;;;;;5076701;28;20033;-71
2021/12/15 05:00:35;;;;;;;3.28;1.23;;;12.00;99.90;;;;;;5076411;28;20085;-72
2021/12/15 05:03:01;;;;;;;4.05;1.30;;;12.00;99.90;;;;;;5076459;28;20016;-71
2021/12/15 05:05:29;;;;;;;3.90;1.38;;;12.10;99.90;;;;;;5076097;28;20059;-72
2021/12/15 05:07:56;;;;;;;2.67;1.20;;;12.00;99.90;;;;;;5076038;28;20021;-73
2021/12/15 05:10:23;;;;;;;5.55;1.70;;;12.00;99.90;;;;;;5075466;28;20020;-72
2021/12/15 05:12:50;;;;;;;3.80;1.20;;;12.00;99.90;;;;;;5057977;28;20037;-72
2021/12/15 05:15:17;;;;;;;3.58;1.30;;;11.90;99.90;;;;;;5075624;28;20092;-72
2021/12/15 05:17:43;;;;;;;2.47;1.30;;;12.00;99.90;;;;;;5075778;28;20123;-72
2021/12/15 05:20:10;;;;;;;4.10;1.60;;;12.00;99.90;;;;;;5057799;28;20481;-72
2021/12/15 05:22:44;;;;;;;4.90;1.50;;;11.90;99.90;;;;;;5058697;28;20040;-71
2021/12/15 05:25:11;;;;;;;4.43;1.60;;;11.80;99.90;;;;;;5075596;28;20028;-71
2021/12/15 05:27:39;;;;;;;2.75;1.15;;;11.80;99.90;;;;;;5075258;28;20374;-72
2021/12/15 05:30:11;;;;;;;3.47;1.40;;;11.60;99.90;;;;;;5076104;28;20115;-72
2021/12/15 05:32:38;;;;;;;3.40;1.50;;;11.60;99.90;;;;;;5075839;28;20028;-72
2021/12/15 05:35:05;;;;;;;4.18;1.40;;;11.50;99.90;;;;;;5057764;28;20028;-72
2021/12/15 05:37:32;;;;;;;4.38;1.40;;;11.50;99.90;;;;;;5075227;28;20044;-72
2021/12/15 05:40:02;;;;;;;4.53;1.30;;;11.50;99.90;;;;;;5057599;28;20035;-71
2021/12/15 05:42:29;;;;;;;3.22;1.30;;;11.50;99.90;;;;;;5075229;28;20117;-70
2021/12/15 05:44:56;;;;;;;2.93;1.03;;;11.50;99.90;;;;;;5056984;28;20029;-72
2021/12/15 05:47:24;;;;;;;2.95;1.35;;;11.50;99.90;;;;;;5075462;28;20024;-72
2021/12/15 05:49:51;;;;;;;3.72;1.38;;;11.50;99.90;;;;;;5075414;28;20020;-71
2021/12/15 05:52:17;;;;;;;3.28;1.20;;;11.40;99.90;;;;;;5075176;28;20425;-71
2021/12/15 05:54:43;;;;;;;5.40;1.38;;;11.50;99.90;;;;;;5074740;28;20457;-72
2021/12/15 05:57:09;;;;;;;3.33;1.27;;;11.50;99.90;;;;;;5075460;28;20044;-70
2021/12/15 05:59:35;;;;;;;2.47;1.10;;;11.50;99.90;;;;;;5075608;28;20028;-72
2021/12/15 06:02:03;;;;;;;2.65;1.08;;;11.50;99.90;;;;;;5074872;28;20028;-72
2021/12/15 06:04:29;;;;;;;3.85;1.58;;;11.60;99.90;;;;;;5075435;28;20047;-71
2021/12/15 06:06:56;;;;;;;3.30;1.50;;;11.50;99.90;;;;;;5056854;28;20460;-72
2021/12/15 06:09:22;;;;;;;6.53;1.60;;;11.60;99.90;;;;;;5074333;28;20054;-72
2021/12/15 06:11:52;;;;;;;3.33;1.60;;;11.60;99.90;;;;;;5073918;28;20101;-72
2021/12/15 06:14:23;;;;;;;3.28;1.60;;;11.60;99.90;;;;;;5040341;28;20071;-71
2021/12/15 06:16:56;;;;;;;3.30;1.63;;;11.50;99.90;;;;;;5056376;28;20416;-73
2021/12/15 06:19:22;;;;;;;4.18;1.60;;;11.50;99.90;;;;;;5074604;28;20062;-71
2021/12/15 06:21:49;;;;;;;5.07;1.77;;;11.50;99.90;;;;;;5074590;28;20074;-71
2021/12/15 06:24:15;;;;;;;7.53;2.20;;;11.30;99.90;;;;;;5074885;28;20028;-71
2021/12/15 06:26:41;;;;;;;6.85;1.50;;;11.40;99.90;;;;;;5074422;28;20070;-71
2021/12/15 06:29:11;;;;;;;6.18;1.83;;;11.30;99.90;;;;;;5072939;28;20059;-72
2021/12/15 06:31:38;;;;;;;4.07;1.80;;;11.40;99.90;;;;;;5074519;28;20074;-72
2021/12/15 06:34:05;;;;;;;3.75;1.80;;;11.80;99.90;;;;;;5074395;28;20025;-71
2021/12/15 06:36:33;;;;;;;;;;;12.40;99.90;;;;;;5074563;28;20028;-72
2021/12/15 06:39:00;;;;;;;5.55;1.20;;;12.90;99.90;;;;;;5039380;28;19931;-71
2021/12/15 06:41:26;;;;;;;;;;;13.40;99.90;;;;;;5074285;28;20036;-73
2021/12/15 06:43:58;;;;;;;7.80;1.58;;;14.20;99.90;;;;;;5073457;28;19920;-71
2021/12/15 07:00:13;;;;;;;35.60;3.95;;;17.90;96.60;;;;;;5072981;28;20400;-71
2021/12/15 07:02:40;;;;;;;7.35;1.33;;;18.50;95.70;;;;;;5072744;28;20503;-72
2021/12/15 07:05:10;;;;;;;15.38;2.10;;;17.80;95.10;;;;;;5072789;28;20025;-73
2021/12/15 07:07:39;;;;;;;5.93;1.58;;;17.90;95.80;;;;;;5071994;28;20532;-72
2021/12/15 07:10:07;;;;;;;4.78;1.50;;;17.90;95.60;;;;;;5072402;28;20107;-73
2021/12/15 07:12:35;;;;;;;51.65;6.22;;;17.80;95.90;;;;;;5072678;28;20032;-74
2021/12/15 07:15:01;;;;;;;53.92;8.20;;;18.00;95.60;;;;;;5073008;28;20017;-71
2021/12/15 07:17:36;;;;;;;40.63;5.47;;;18.40;95.50;;;;;;5072908;28;20024;-75
2021/12/15 07:20:17;;;;;;;8.15;1.98;;;18.80;94.90;;;;;;5055716;28;20353;-74
2021/12/15 07:22:45;;;;;;;9.30;2.05;;;18.40;94.70;;;;;;5073014;28;20025;-73
2021/12/15 07:25:14;;;;;;;10.45;2.20;;;18.30;95.40;;;;;;5072862;28;20025;-72
2021/12/15 07:27:42;;;;;;;6.60;1.75;;;18.90;94.60;;;;;;5072331;28;20039;-72
2021/12/15 07:30:10;;;;;;;4.90;1.33;;;19.70;94.00;;;;;;5073270;28;20157;-73
2021/12/15 07:32:37;;;;;;;8.43;2.00;;;19.30;93.20;;;;;;5072825;28;20025;-73
2021/12/15 07:35:04;;;;;;;5.18;1.60;;;19.60;93.00;;;;;;5073025;28;20032;-74
2021/12/15 07:37:32;;;;;;;11.38;2.55;;;19.90;92.00;;;;;;5073142;28;20483;-73
2021/12/15 07:40:00;;;;;;;6.53;1.73;;;19.10;93.50;;;;;;5072830;28;20020;-74
2021/12/15 07:42:35;;;;;;;6.13;1.60;;;18.60;93.80;;;;;;5073028;28;20020;-74
2021/12/15 07:45:04;;;;;;;9.98;2.15;;;18.30;93.80;;;;;;5072610;28;20039;-74
2021/12/15 07:47:30;;;;;;;6.72;1.65;;;17.90;95.20;;;;;;5073180;28;20136;-75
2021/12/15 07:50:00;;;;;;;118.43;12.43;;;17.60;95.80;;;;;;5072371;28;20099;-73
2021/12/15 07:52:28;;;;;;;6.45;2.03;;;17.20;95.80;;;;;;5072811;28;20538;-72
2021/12/15 07:54:54;;;;;;;4.30;1.50;;;16.90;96.60;;;;;;5072769;28;20075;-72
2021/12/15 07:57:27;;;;;;;6.38;1.70;;;16.30;97.20;;;;;;5037929;28;20032;-73
2021/12/15 07:59:56;;;;;;;6.43;1.50;;;16.00;97.80;;;;;;5055745;28;20033;-75
2021/12/15 08:02:23;;;;;;;82.50;13.50;;;15.60;98.80;;;;;;5072856;28;20525;-74
2021/12/15 08:04:49;;;;;;;17.38;3.40;;;15.70;99.20;;;;;;5072398;28;20028;-72
2021/12/15 08:07:17;;;;;;;55.03;5.13;;;16.00;99.60;;;;;;5073046;28;20095;-70
2021/12/15 08:09:45;;;;;;;7.13;1.70;;;16.40;99.10;;;;;;5072448;28;20274;-69
2021/12/15 08:12:11;;;;;;;7.70;2.10;;;16.50;98.20;;;;;;5072189;28;20039;-69
2021/12/15 08:14:39;;;;;;;5.22;1.70;;;16.80;97.90;;;;;;5072698;28;20024;-70
2021/12/15 08:17:05;;;;;;;3.58;1.45;;;17.00;97.30;;;;;;5072191;28;20499;-71
2021/12/15 08:19:31;;;;;;;5.57;1.48;;;16.50;97.60;;;;;;5072368;28;20064;-69
2021/12/15 08:21:57;;;;;;;4.72;1.60;;;16.10;98.30;;;;;;5071947;28;20520;-70
2021/12/15 08:24:23;;;;;;;64.25;9.60;;;16.00;98.40;;;;;;5072190;28;20043;-71
2021/12/15 08:26:50;;;;;;;22.57;2.63;;;15.80;98.90;;;;;;5071937;28;20051;-71
2021/12/15 08:29:16;;;;;;;4.82;1.67;;;15.60;99.20;;;;;;5071778;28;20282;-70
2021/12/15 08:31:43;;;;;;;44.13;5.55;;;15.60;99.60;;;;;;5072118;28;20024;-69
2021/12/15 08:34:09;;;;;;;43.03;4.82;;;15.80;99.40;;;;;;5054011;28;20134;-70
2021/12/15 08:36:37;;;;;;;13.18;1.90;;;15.90;99.60;;;;;;5071868;28;20048;-71
2021/12/15 08:39:04;;;;;;;7.95;1.80;;;15.90;99.50;;;;;;5054090;28;20076;-69
2021/12/15 08:41:32;;;;;;;103.03;12.38;;;16.10;99.10;;;;;;5053672;28;20031;-70
2021/12/15 08:44:00;;;;;;;144.55;15.45;;;16.20;99.60;;;;;;5067965;28;20058;-66
2021/12/15 08:46:34;;;;;;;15.13;2.88;;;16.30;99.30;;;;;;5071895;28;20053;-71
2021/12/15 08:49:01;;;;;;;43.92;5.00;;;16.60;98.70;;;;;;5071520;28;20040;-72
2021/12/15 08:51:29;;;;;;;5.75;1.50;;;16.70;98.60;;;;;;5071468;28;20079;-70
2021/12/15 08:54:02;;;;;;;9.60;3.08;;;16.50;98.60;;;;;;5053818;28;20025;-69
2021/12/15 08:56:29;;;;;;;34.15;4.50;;;16.30;99.00;;;;;;5071450;28;20031;-71
2021/12/15 08:58:55;;;;;;;11.70;2.05;;;16.20;99.00;;;;;;5071556;28;20107;-70
2021/12/15 09:01:22;;;;;;;89.90;9.88;;;16.20;99.20;;;;;;5071776;28;20445;-71
2021/12/15 09:03:49;;;;;;;18.70;3.38;;;16.50;98.80;;;;;;5071822;28;20377;-72
2021/12/15 09:06:15;;;;;;;21.85;4.18;;;16.50;98.80;;;;;;5071554;28;20124;-71
2021/12/15 09:08:42;;;;;;;;;;;16.50;98.60;;;;;;5071879;28;20094;-68
2021/12/15 09:11:13;;;;;;;87.68;9.55;;;16.50;98.60;;;;;;5071662;28;19905;-72
2021/12/15 09:13:39;;;;;;;18.50;3.03;;;16.80;98.50;;;;;;5072331;28;20017;-71
2021/12/15 09:16:10;;;;;;;8.55;1.90;;;17.00;98.30;;;;;;5071541;28;20025;-71
2021/12/15 09:18:37;;;;;;;5.57;1.35;;;16.90;97.90;;;;;;5052838;28;20045;-70
2021/12/15 09:21:05;;;;;;;3.88;1.17;;;16.80;97.60;;;;;;5071592;28;20021;-69
2021/12/15 09:23:31;;;;;;;5.50;1.02;;;16.40;97.30;;;;;;5071240;28;20123;-69
2021/12/15 09:25:57;;;;;;;3.88;1.02;;;16.20;98.10;;;;;;5054090;28;20465;-70
2021/12/15 09:28:25;;;;;;;4.50;1.17;;;16.00;97.60;;;;;;5071032;28;20075;-69
2021/12/15 09:30:54;;;;;;;43.85;5.30;;;15.90;98.10;;;;;;5055398;28;20532;-70
2021/12/15 09:33:23;;;;;;;8.32;1.52;;;16.00;98.60;;;;;;5075338;28;20039;-70
2021/12/15 09:35:49;;;;;;;2.97;0.90;;;16.10;97.90;;;;;;5075091;28;20016;-70
2021/12/15 09:38:19;;;;;;;3.28;1.02;;;16.00;97.60;;;;;;5075134;28;20496;-70
2021/12/15 09:40:48;;;;;;;6.57;1.30;;;16.00;97.30;;;;;;5056668;28;20020;-70
2021/12/15 09:43:15;;;;;;;3.17;1.15;;;15.80;97.40;;;;;;5074572;28;20040;-71
2021/12/15 09:45:50;;;;;;;;;;;15.70;97.70;;;;;;5075314;28;20029;-70
2021/12/15 09:56:39;;;;;;;10.63;1.98;;;15.70;97.60;;;;;;5074815;28;20384;-69
2021/12/15 10:04:49;;;;;;;6.18;1.25;;;16.40;96.70;;;;;;5075317;28;19911;-71
2021/12/15 10:07:22;;;;;;;5.75;1.60;;;16.30;96.00;;;;;;5075804;28;20052;-71
2021/12/15 10:18:38;;;;;;;8.38;1.48;;;15.80;97.30;;;;;;5074264;28;20087;-71
2021/12/15 10:21:05;;;;;;;4.13;1.10;;;16.10;96.20;;;;;;5057872;28;20039;-70
2021/12/15 10:23:40;;;;;;;2.95;1.23;;;16.00;96.30;;;;;;5054620;28;20123;-71
2021/12/15 10:26:07;;;;;;;10.63;1.67;;;16.00;96.30;;;;;;5055689;28;20024;-69
2021/12/15 10:28:35;;;;;;;17.00;2.58;;;16.10;96.20;;;;;;5073781;28;20059;-71
2021/12/15 10:31:06;;;;;;;4.38;1.30;;;16.30;96.50;;;;;;5056021;28;20093;-71
2021/12/15 10:33:46;;;;;;;5.38;1.48;;;16.40;95.60;;;;;;5074663;28;20425;-69
2021/12/15 10:36:26;;;;;;;3.92;1.30;;;16.40;95.40;;;;;;5074208;28;20108;-71
2021/12/15 10:38:57;;;;;;;4.00;1.20;;;16.40;95.70;;;;;;5055678;28;20210;-72
2021/12/15 10:41:32;;;;;;;6.03;1.10;;;16.30;95.50;;;;;;5074339;28;20012;-72
2021/12/15 10:44:01;;;;;;;3.35;1.33;;;16.50;95.70;;;;;;5074465;28;20425;-73
2021/12/15 10:46:43;;;;;;;176.02;20.48;;;16.50;96.00;;;;;;5055588;28;20032;-72
2021/12/15 10:49:15;;;;;;;13.80;2.20;;;16.40;95.70;;;;;;5073431;28;20347;-71
2021/12/15 10:51:59;;;;;;;4.10;1.38;;;16.40;95.40;;;;;;5073105;28;20043;-71
2021/12/15 10:54:34;;;;;;;4.68;1.27;;;16.40;95.10;;;;;;5073522;28;20082;-70
2021/12/15 10:57:14;;;;;;;6.72;1.50;;;16.60;94.40;;;;;;5073390;28;20431;-71
2021/12/15 10:59:51;;;;;;;2.40;1.00;;;16.90;94.10;;;;;;5055555;28;20575;-70
2021/12/15 11:02:28;;;;;;;6.68;1.42;;;17.20;93.70;;;;;;5073243;28;20032;-70
2021/12/15 11:04:59;;;;;;;4.90;1.17;;;16.90;94.30;;;;;;5054644;28;20461;-70
2021/12/15 11:07:37;;;;;;;18.15;2.58;;;16.80;94.90;;;;;;5054763;28;20405;-74
2021/12/15 11:10:08;;;;;;;4.80;0.90;;;16.80;94.40;;;;;;5072659;28;20036;-70
2021/12/15 11:12:43;;;;;;;3.85;1.10;;;17.00;93.90;;;;;;5073469;28;20017;-70
2021/12/15 11:15:16;;;;;;;4.07;0.98;;;17.20;94.20;;;;;;5073157;28;20090;-71
2021/12/15 11:17:47;;;;;;;2.20;0.80;;;17.30;93.30;;;;;;5072296;28;20086;-70
2021/12/15 11:20:24;;;;;;;4.40;0.98;;;17.00;92.90;;;;;;5072764;28;20025;-69
2021/12/15 11:23:00;;;;;;;4.60;1.15;;;16.90;92.90;;;;;;5053600;28;20025;-68
2021/12/15 11:25:35;;;;;;;;;;;16.90;92.70;;;;;;5073623;28;20445;-71
2021/12/15 11:28:04;;;;;;;4.00;1.10;;;16.80;93.50;;;;;;5072718;28;19924;-70
2021/12/15 11:30:43;;;;;;;2.60;0.90;;;16.90;93.60;;;;;;5073040;28;20028;-72
2021/12/15 11:33:32;;;;;;;3.55;0.93;;;17.00;93.30;;;;;;5072816;28;20377;-69
2021/12/15 11:36:09;;;;;;;2.53;1.00;;;16.60;93.20;;;;;;5072234;28;20115;-70
2021/12/15 11:38:37;;;;;;;3.28;1.13;;;16.60;92.70;;;;;;5072501;28;20028;-69
2021/12/15 11:41:09;;;;;;;2.67;1.00;;;16.60;92.90;;;;;;5072646;28;20485;-70
2021/12/15 11:43:39;;;;;;;5.78;1.10;;;16.70;92.70;;;;;;5072681;28;20067;-70
2021/12/15 11:46:26;;;;;;;4.38;1.20;;;16.70;92.40;;;;;;5072316;28;20120;-70
2021/12/15 11:49:02;;;;;;;12.90;2.30;;;16.90;92.30;;;;;;5072380;28;20025;-70
2021/12/15 11:51:36;;;;;;;5.00;1.20;;;16.90;92.40;;;;;;5072174;28;20031;-70
2021/12/15 11:54:09;;;;;;;3.25;1.20;;;16.70;92.40;;;;;;5071820;28;20051;-70
2021/12/15 11:56:42;;;;;;;2.13;1.00;;;16.50;92.20;;;;;;5071761;28;20017;-69
2021/12/15 11:59:40;;;;;;;2.15;0.90;;;16.30;92.30;;;;;;5071572;28;20509;-68
2021/12/15 12:02:24;;;;;;;2.65;0.93;;;16.20;92.40;;;;;;5057635;28;20036;-72
2021/12/15 12:05:15;;;;;;;4.60;1.10;;;16.30;92.60;;;;;;5071436;28;20464;-68
2021/12/15 12:07:47;;;;;;;3.35;1.10;;;16.70;92.50;;;;;;5071315;28;20028;-70
2021/12/15 12:10:29;;;;;;;6.05;1.30;;;17.10;92.20;;;;;;5071307;28;20051;-71
2021/12/15 12:13:11;;;;;;;7.47;1.23;;;17.30;91.80;;;;;;5052754;28;20122;-69
2021/12/15 12:15:43;;;;;;;6.60;1.15;;;17.10;91.00;;;;;;5069311;28;20044;-71
2021/12/15 12:18:16;;;;;;;3.80;0.73;;;17.20;90.20;;;;;;5070734;28;20372;-69
2021/12/15 12:20:45;;;;;;;4.10;1.20;;;16.90;90.30;;;;;;5071137;28;20499;-70
2021/12/15 12:23:21;;;;;;;7.28;1.13;;;16.90;90.30;;;;;;5071741;28;20115;-70
2021/12/15 12:25:50;;;;;;;3.03;0.90;;;16.90;90.70;;;;;;5054212;28;20024;-70
2021/12/15 12:28:21;;;;;;;3.72;0.82;;;16.90;89.80;;;;;;5071500;28;20056;-70
2021/12/15 12:30:52;;;;;;;4.68;0.90;;;16.40;90.50;;;;;;5053707;28;20046;-70
2021/12/15 12:33:21;;;;;;;4.47;0.98;;;16.20;91.10;;;;;;5072179;28;20501;-70
2021/12/15 12:36:03;;;;;;;2.22;0.90;;;16.00;91.70;;;;;;5071808;28;20020;-70
2021/12/15 12:38:32;;;;;;;3.50;1.35;;;15.90;91.30;;;;;;5071408;28;20318;-70
2021/12/15 12:41:05;;;;;;;8.55;1.02;;;15.80;91.90;;;;;;5071872;28;20091;-72
2021/12/15 12:43:32;;;;;;;11.55;1.05;;;15.80;92.20;;;;;;5071826;28;20481;-69
2021/12/15 12:46:09;;;;;;;3.05;0.70;;;15.80;92.50;;;;;;5053284;28;20063;-69
2021/12/15 12:59:35;;;;;;;2.92;0.85;;;16.70;88.30;;;;;;5070890;28;20093;-70
2021/12/15 13:02:10;;;;;;;2.33;0.70;;;16.60;89.40;;;;;;5071149;28;20024;-70
2021/12/15 13:04:42;;;;;;;11.35;1.35;;;16.60;89.40;;;;;;5072327;28;20373;-71
2021/12/15 13:07:09;;;;;;;2.75;0.73;;;16.70;89.20;;;;;;5075458;28;20035;-71
2021/12/15 13:09:51;;;;;;;2.05;0.90;;;16.90;90.30;;;;;;5075889;28;20492;-70
2021/12/15 13:12:24;;;;;;;9.05;0.75;;;17.00;88.70;;;;;;5075899;28;20028;-70
2021/12/15 13:14:52;;;;;;;2.67;1.08;;;16.80;88.40;;;;;;5075387;28;20024;-70
2021/12/15 13:17:27;;;;;;;3.35;0.80;;;16.60;89.10;;;;;;5075678;28;20021;-73
2021/12/15 13:19:58;;;;;;;4.47;0.93;;;16.60;88.90;;;;;;5075619;28;20033;-72
2021/12/15 13:22:47;;;;;;;53.67;5.00;;;16.80;89.70;;;;;;5075259;28;20028;-72
2021/12/15 13:31:11;;;;;;;19.48;3.22;;;17.00;93.70;;;;;;5075842;28;20528;-71
2021/12/15 13:33:40;;;;;;;9.50;2.20;;;17.00;94.80;;;;;;5075447;28;20025;-72
2021/12/15 13:36:18;;;;;;;7.53;1.90;;;17.00;95.00;;;;;;5075218;28;20119;-71
2021/12/15 13:38:52;;;;;;;8.00;1.90;;;17.20;95.10;;;;;;5075078;28;20052;-73
2021/12/15 13:44:44;;;;;;;9.98;2.13;;;17.40;94.80;;;;;;4974494;28;20086;-73
2021/12/15 13:47:21;;;;;;;28.17;4.80;;;17.60;94.50;;;;;;4974228;28;20062;-72
2021/12/15 13:49:55;;;;;;;16.65;2.13;;;17.60;94.50;;;;;;4974314;28;20079;-72
2021/12/15 13:52:34;;;;;;;16.50;2.70;;;17.60;93.90;;;;;;4974403;28;20113;-72
2021/12/15 13:55:04;;;;;;;47.00;4.82;;;17.30;94.30;;;;;;4974162;28;20129;-72
2021/12/15 13:57:39;;;;;;;23.48;3.97;;;17.00;94.80;;;;;;4974010;28;20045;-72
2021/12/15 14:00:19;;;;;;;16.25;2.10;;;16.80;94.80;;;;;;4974396;28;20034;-72
2021/12/15 14:03:17;;;;;;;13.32;2.08;;;16.60;95.20;;;;;;4974440;28;20031;-72
2021/12/15 14:05:51;;;;;;;11.50;2.15;;;16.50;95.40;;;;;;4973724;28;20043;-72
2021/12/15 14:08:25;;;;;;;22.75;2.78;;;16.30;95.80;;;;;;4974488;28;20031;-72
2021/12/15 14:11:08;;;;;;;14.73;1.98;;;16.30;96.30;;;;;;4973747;28;20031;-72
2021/12/15 14:13:45;;;;;;;12.65;2.10;;;16.20;96.30;;;;;;4957329;28;20041;-72
2021/12/15 14:16:12;;;;;;;7.55;1.80;;;16.20;96.20;;;;;;4973266;28;20047;-73
2021/12/15 14:18:38;;;;;;;9.50;1.75;;;16.30;96.20;;;;;;4956666;28;20213;-72
2021/12/15 14:21:14;;;;;;;10.10;2.08;;;16.50;96.00;;;;;;5043485;28;20056;-72
2021/12/15 14:23:44;;;;;;;8.02;2.10;;;16.70;95.50;;;;;;5074385;28;20032;-71
2021/12/15 14:26:17;;;;;;;9.00;1.45;;;16.90;95.50;;;;;;5074295;28;20051;-72
2021/12/15 14:28:54;;;;;;;5.10;1.30;;;17.10;95.10;;;;;;5074052;28;20055;-71
2021/12/15 14:31:27;;;;;;;11.00;1.80;;;17.10;95.10;;;;;;5074525;28;20504;-73
2021/12/15 14:33:56;;;;;;;6.68;1.70;;;17.00;95.20;;;;;;5074465;28;20033;-72
2021/12/15 14:36:33;;;;;;;10.05;1.60;;;16.90;95.40;;;;;;5074526;28;20017;-72